Time,TemperatureF,DewpointF,PressureIn,WindDirection,WindDirectionDegrees,WindSpeedMPH,WindSpeedGustMPH,Humidity,HourlyPrecipIn,Conditions,Clouds,dailyrainin,SolarRadiationWatts/m^2,SoftwareType,DateUTC
2013-09-09 00:00:00,75.3,54.3,29.91,WSW,248,1.0,4.0,48,0.00,,---,0.00,0.00,VWS V14.01,2013-09-09 07:00:00,
2013-09-09 00:12:00,75.1,55.0,29.89,SSE,160,3.0,4.0,50,0.00,,,0.00,0,weatherlink.com 1.10,2013-09-09 07:12:00,
2013-09-09 00:15:00,75.2,55.8,29.89,SE,135,2.0,5.0,51,0.00,,---,0.00,0.00,VWS V14.01,2013-09-09 07:15:00,
2013-09-09 00:27:00,74.9,54.0,29.88,SE,128,2.0,5.0,49,0.00,,,0.00,0,weatherlink.com 1.10,2013-09-09 07:27:00,
2013-09-09 00:30:00,74.9,54.5,29.88,SE,135,2.0,7.0,49,0.00,,---,0.00,0.00,VWS V14.01,2013-09-09 07:30:00,
2013-09-09 00:42:00,74.7,54.0,29.87,SE,128,2.0,3.0,48,0.00,,,0.00,0,weatherlink.com 1.10,2013-09-09 07:42:00,
2013-09-09 00:45:00,74.7,53.2,29.87,SE,135,2.0,4.0,47,0.00,,---,0.00,0.00,VWS V14.01,2013-09-09 07:45:00,
2013-09-09 00:57:00,75.4,53.0,29.86,SE,139,4.0,6.0,46,0.00,,,0.00,0,weatherlink.com 1.10,2013-09-09 07:57:00,
2013-09-09 01:00:00,75.2,52.4,29.86,SW,225,3.0,7.0,45,0.00,,---,0.00,0.00,VWS V14.01,2013-09-09 08:00:00,
2013-09-09 01:12:00,75.8,53.0,29.86,NNW,336,3.0,6.0,45,0.00,,,0.00,0,weatherlink.com 1.10,2013-09-09 08:12:00,
2013-09-09 01:15:00,75.8,55.3,29.86,ENE,68,2.0,7.0,49,0.00,,---,0.00,0.00,VWS V14.01,2013-09-09 08:15:00,
2013-09-09 01:28:00,74.9,58.0,29.87,NE,53,0.0,9.0,55,0.00,,,0.00,0,weatherlink.com 1.10,2013-09-09 08:28:00,
2013-09-09 01:30:00,75.2,58.4,29.87,ENE,68,3.0,9.0,56,0.00,,---,0.00,0.00,VWS V14.01,2013-09-09 08:30:00,
2013-09-09 01:43:00,74.2,57.0,29.86,NE,53,0.0,0.0,56,0.00,,,0.00,0,weatherlink.com 1.10,2013-09-09 08:43:00,
2013-09-09 01:45:00,74.3,57.6,29.87,ENE,68,0.0,0.0,56,0.00,,---,0.00,0.00,VWS V14.01,2013-09-09 08:45:00,
2013-09-09 01:58:00,73.5,58.0,29.87,NE,53,0.0,3.0,59,0.00,,,0.00,0,weatherlink.com 1.10,2013-09-09 08:58:00,
2013-09-09 02:00:00,73.6,58.9,29.86,NE,45,1.0,3.0,60,0.00,,---,0.00,0.00,VWS V14.01,2013-09-09 09:00:00,
2013-09-09 02:13:00,72.3,58.0,29.87,NE,53,0.0,0.0,60,0.00,,,0.00,0,weatherlink.com 1.10,2013-09-09 09:13:00,
2013-09-09 02:15:00,72.6,57.9,29.86,NE,45,0.0,0.0,60,0.00,,---,0.00,0.00,VWS V14.01,2013-09-09 09:15:00,
2013-09-09 02:28:00,71.8,56.0,29.86,NE,53,0.0,0.0,57,0.00,,,0.00,0,weatherlink.com 1.10,2013-09-09 09:28:00,
2013-09-09 02:30:00,71.9,55.4,29.86,NE,45,0.0,0.0,56,0.00,,---,0.00,0.00,VWS V14.01,2013-09-09 09:30:00,
2013-09-09 02:43:00,72.0,54.0,29.86,NE,53,0.0,2.0,54,0.00,,,0.00,0,weatherlink.com 1.10,2013-09-09 09:43:00,
2013-09-09 02:45:00,71.9,54.4,29.86,NE,45,0.0,3.0,54,0.00,,---,0.00,0.00,VWS V14.01,2013-09-09 09:45:00,
2013-09-09 02:58:00,72.3,54.0,29.85,NE,53,0.0,0.0,53,0.00,,,0.00,0,weatherlink.com 1.10,2013-09-09 09:58:00,
2013-09-09 03:00:00,72.2,54.1,29.85,NE,45,0.0,0.0,53,0.00,,---,0.00,0.00,VWS V14.01,2013-09-09 10:00:00,
2013-09-09 03:13:00,72.5,54.0,29.85,NE,53,0.0,0.0,52,0.00,,,0.00,0,weatherlink.com 1.10,2013-09-09 10:13:00,
2013-09-09 03:15:00,72.5,53.9,29.85,NE,45,0.0,0.0,52,0.00,,---,0.00,0.00,VWS V14.01,2013-09-09 10:15:00,
2013-09-09 03:28:00,72.5,54.0,29.86,NE,53,0.0,0.0,53,0.00,,,0.00,0,weatherlink.com 1.10,2013-09-09 10:28:00,
2013-09-09 03:30:00,72.5,54.4,29.85,NE,45,0.0,0.0,53,0.00,,---,0.00,0.00,VWS V14.01,2013-09-09 10:30:00,
2013-09-09 03:43:00,72.5,54.0,29.86,NE,53,0.0,0.0,53,0.00,,,0.00,0,weatherlink.com 1.10,2013-09-09 10:43:00,
2013-09-09 03:45:00,72.5,54.4,29.86,NE,45,0.0,0.0,53,0.00,,---,0.00,0.00,VWS V14.01,2013-09-09 10:45:00,
2013-09-09 03:58:00,72.8,54.0,29.86,East,89,5.0,7.0,52,0.00,,,0.00,0,weatherlink.com 1.10,2013-09-09 10:58:00,
2013-09-09 04:00:00,72.7,54.1,29.86,East,90,2.0,7.0,52,0.00,,---,0.00,0.00,VWS V14.01,2013-09-09 11:00:00,
2013-09-09 04:13:00,73.3,54.0,29.86,South,174,3.0,7.0,52,0.00,,,0.00,0,weatherlink.com 1.10,2013-09-09 11:13:00,
2013-09-09 04:15:00,73.2,54.5,29.86,South,180,3.0,7.0,52,0.00,,---,0.00,0.00,VWS V14.01,2013-09-09 11:15:00,
2013-09-09 04:28:00,73.3,53.0,29.86,SSE,162,3.0,6.0,50,0.00,,,0.00,0,weatherlink.com 1.10,2013-09-09 11:28:00,
2013-09-09 04:30:00,73.3,53.6,29.86,South,180,3.0,6.0,50,0.00,,---,0.00,0.00,VWS V14.01,2013-09-09 11:30:00,
2013-09-09 04:43:00,73.7,54.0,29.87,SE,127,0.0,7.0,50,0.00,,,0.00,0,weatherlink.com 1.10,2013-09-09 11:43:00,
2013-09-09 04:45:00,73.6,53.8,29.87,SE,135,2.0,6.0,50,0.00,,---,0.00,0.00,VWS V14.01,2013-09-09 11:45:00,
2013-09-09 04:58:00,73.3,54.0,29.87,SE,127,0.0,0.0,51,0.00,,,0.00,0,weatherlink.com 1.10,2013-09-09 11:58:00,
2013-09-09 05:00:00,73.4,54.2,29.87,SE,135,0.0,0.0,51,0.00,,---,0.00,0.00,VWS V14.01,2013-09-09 12:00:00,
2013-09-09 05:13:00,72.8,54.0,29.87,SE,127,0.0,0.0,51,0.00,,,0.00,0,weatherlink.com 1.10,2013-09-09 12:13:00,
2013-09-09 05:15:00,73.0,54.4,29.87,SE,135,0.0,0.0,52,0.00,,---,0.00,0.00,VWS V14.01,2013-09-09 12:15:00,
2013-09-09 05:28:00,72.1,54.0,29.87,SE,127,0.0,0.0,53,0.00,,,0.00,0,weatherlink.com 1.10,2013-09-09 12:28:00,
2013-09-09 05:30:00,72.2,54.1,29.87,SE,135,0.0,0.0,53,0.00,,---,0.00,0.00,VWS V14.01,2013-09-09 12:30:00,
2013-09-09 05:43:00,71.6,54.0,29.88,SE,125,0.0,0.0,54,0.00,,,0.00,0,weatherlink.com 1.10,2013-09-09 12:43:00,
2013-09-09 05:45:00,71.7,55.2,29.88,NE,45,0.0,4.0,56,0.00,,---,0.00,0.00,VWS V14.01,2013-09-09 12:45:00,
2013-09-09 05:58:00,71.5,56.0,29.88,NNE,12,3.0,6.0,58,0.00,,,0.00,0,weatherlink.com 1.10,2013-09-09 12:58:00,
2013-09-09 06:00:00,71.5,56.0,29.89,NNE,22,2.0,6.0,58,0.00,,---,0.00,0.00,VWS V14.01,2013-09-09 13:00:00,
2013-09-09 06:13:00,70.9,54.0,29.88,NNE,12,0.0,2.0,56,0.00,,,0.00,0,weatherlink.com 1.10,2013-09-09 13:13:00,
2013-09-09 06:15:00,71.1,54.6,29.89,NNE,22,0.0,3.0,56,0.00,,---,0.00,0.00,VWS V14.01,2013-09-09 13:15:00,
2013-09-09 06:28:00,70.6,54.0,29.89,NNE,12,0.0,0.0,57,0.00,,,0.00,0,weatherlink.com 1.10,2013-09-09 13:28:00,
2013-09-09 06:30:00,70.7,54.7,29.89,NNE,22,0.0,0.0,57,0.00,,---,0.00,1.00,VWS V14.01,2013-09-09 13:30:00,
2013-09-09 06:43:00,70.4,55.0,29.89,NNE,12,0.0,0.0,58,0.00,,,0.00,23,weatherlink.com 1.10,2013-09-09 13:43:00,
2013-09-09 06:45:00,70.4,54.9,29.89,NNE,22,0.0,0.0,58,0.00,,---,0.00,18.00,VWS V14.01,2013-09-09 13:45:00,
2013-09-09 06:58:00,70.3,55.0,29.90,NNE,12,0.0,0.0,59,0.00,,,0.00,54,weatherlink.com 1.10,2013-09-09 13:58:00,
2013-09-09 07:00:00,70.3,54.8,29.90,NNE,22,0.0,4.0,58,0.00,,---,0.00,46.00,VWS V14.01,2013-09-09 14:00:00,
2013-09-09 07:13:00,70.3,55.0,29.90,NNE,12,1.0,3.0,59,0.00,,,0.00,91,weatherlink.com 1.10,2013-09-09 14:13:00,
2013-09-09 07:15:00,70.3,55.8,29.90,NNE,22,0.0,3.0,60,0.00,,---,0.00,84.00,VWS V14.01,2013-09-09 14:15:00,
2013-09-09 07:28:00,70.4,56.0,29.90,NNE,12,0.0,0.0,60,0.00,,,0.00,148,weatherlink.com 1.10,2013-09-09 14:28:00,
2013-09-09 07:30:00,70.3,55.3,29.90,NNE,22,0.0,0.0,59,0.00,,---,0.00,133.00,VWS V14.01,2013-09-09 14:30:00,
2013-09-09 07:43:00,70.9,55.0,29.90,NNE,12,0.0,0.0,58,0.00,,,0.00,197,weatherlink.com 1.10,2013-09-09 14:43:00,
2013-09-09 07:45:00,70.7,54.7,29.90,NNE,22,0.0,0.0,57,0.00,,---,0.00,183.00,VWS V14.01,2013-09-09 14:45:00,
2013-09-09 07:58:00,72.1,55.0,29.90,NNE,12,0.0,0.0,55,0.00,,,0.00,243,weatherlink.com 1.10,2013-09-09 14:58:00,
2013-09-09 08:00:00,71.8,54.8,29.90,NNE,22,0.0,0.0,55,0.00,,---,0.00,230.00,VWS V14.01,2013-09-09 15:00:00,
2013-09-09 08:13:00,73.7,55.0,29.90,NNE,12,0.0,3.0,52,0.00,,,0.00,295,weatherlink.com 1.10,2013-09-09 15:13:00,
2013-09-09 08:15:00,73.2,54.5,29.90,NNE,22,0.0,3.0,52,0.00,,---,0.00,280.00,VWS V14.01,2013-09-09 15:15:00,
2013-09-09 08:28:00,75.6,55.0,29.90,NNE,12,0.0,3.0,49,0.00,,,0.00,343,weatherlink.com 1.10,2013-09-09 15:28:00,
2013-09-09 08:30:00,74.9,53.9,29.90,NNE,22,1.0,3.0,48,0.00,,---,0.00,329.00,VWS V14.01,2013-09-09 15:30:00,
2013-09-09 08:45:00,76.8,53.9,29.90,WNW,292,1.0,4.0,45,0.00,,---,0.00,378.00,VWS V14.01,2013-09-09 15:45:00,
2013-09-09 08:58:00,78.6,54.0,29.91,SSW,197,2.0,2.0,43,0.00,,,0.00,439,weatherlink.com 1.10,2013-09-09 15:58:00,
2013-09-09 09:00:00,78.2,53.2,29.90,SSW,202,0.0,3.0,42,0.00,,---,0.00,424.00,VWS V14.01,2013-09-09 16:00:00,
2013-09-09 09:14:00,80.1,54.0,29.90,South,186,2.0,2.0,40,0.00,,,0.00,490,weatherlink.com 1.10,2013-09-09 16:14:00,
2013-09-09 09:15:00,79.7,52.6,29.90,South,180,0.0,2.0,39,0.00,,---,0.00,475.00,VWS V14.01,2013-09-09 16:15:00,
2013-09-09 09:29:00,81.2,53.0,29.90,East,96,2.0,3.0,38,0.00,,,0.00,534,weatherlink.com 1.10,2013-09-09 16:29:00,
2013-09-09 09:30:00,80.8,52.8,29.90,East,90,1.0,3.0,38,0.00,,---,0.00,521.00,VWS V14.01,2013-09-09 16:30:00,
2013-09-09 09:44:00,82.6,53.0,29.89,East,95,3.0,3.0,36,0.00,,,0.00,580,weatherlink.com 1.10,2013-09-09 16:44:00,
2013-09-09 09:45:00,81.9,51.6,29.90,East,90,1.0,3.0,35,0.00,,---,0.00,564.00,VWS V14.01,2013-09-09 16:45:00,
2013-09-09 09:59:00,84.0,52.0,29.90,ENE,70,1.0,5.0,33,0.00,,,0.00,621,weatherlink.com 1.10,2013-09-09 16:59:00,
2013-09-09 10:00:00,83.5,51.4,29.90,East,90,1.0,5.0,33,0.00,,---,0.00,606.00,VWS V14.01,2013-09-09 17:00:00,
2013-09-09 10:14:00,85.1,51.0,29.90,ENE,70,0.0,2.0,31,0.00,,,0.00,657,weatherlink.com 1.10,2013-09-09 17:14:00,
2013-09-09 10:15:00,84.5,49.7,29.90,ENE,68,1.0,3.0,30,0.00,,---,0.00,646.00,VWS V14.01,2013-09-09 17:15:00,
2013-09-09 10:29:00,85.9,50.0,29.90,ENE,71,4.0,5.0,29,0.00,,,0.00,698,weatherlink.com 1.10,2013-09-09 17:29:00,
2013-09-09 10:30:00,85.6,49.7,29.90,ENE,68,2.0,7.0,29,0.00,,---,0.00,685.00,VWS V14.01,2013-09-09 17:30:00,
2013-09-09 10:44:00,86.1,49.0,29.89,NE,51,3.0,5.0,28,0.00,,,0.00,726,weatherlink.com 1.10,2013-09-09 17:44:00,
2013-09-09 10:45:00,85.8,49.0,29.89,ENE,68,2.0,5.0,28,0.00,,---,0.00,715.00,VWS V14.01,2013-09-09 17:45:00,
2013-09-09 10:59:00,85.7,50.0,29.89,ENE,70,3.0,7.0,29,0.00,,,0.00,754,weatherlink.com 1.10,2013-09-09 17:59:00,
2013-09-09 11:00:00,86.0,49.1,29.89,ENE,68,2.0,7.0,28,0.00,,---,0.00,745.00,VWS V14.01,2013-09-09 18:00:00,
2013-09-09 11:14:00,86.3,50.0,29.88,ESE,104,7.0,9.0,28,0.00,,,0.00,780,weatherlink.com 1.10,2013-09-09 18:14:00,
2013-09-09 11:15:00,86.3,48.4,29.88,East,90,3.0,9.0,27,0.00,,---,0.00,772.00,VWS V14.01,2013-09-09 18:15:00,
2013-09-09 11:29:00,86.7,50.0,29.88,ENE,70,0.0,8.0,28,0.00,,,0.00,805,weatherlink.com 1.10,2013-09-09 18:29:00,
2013-09-09 11:30:00,86.7,48.8,29.88,East,90,3.0,8.0,27,0.00,,---,0.00,796.00,VWS V14.01,2013-09-09 18:30:00,
2013-09-09 11:44:00,87.2,49.0,29.87,ENE,65,3.0,8.0,27,0.00,,,0.00,821,weatherlink.com 1.10,2013-09-09 18:44:00,
2013-09-09 11:45:00,87.0,50.0,29.87,ENE,68,3.0,8.0,28,0.00,,---,0.00,816.00,VWS V14.01,2013-09-09 18:45:00,
2013-09-09 11:59:00,88.2,50.0,29.86,NNE,28,2.0,10.0,27,0.00,,,0.00,838,weatherlink.com 1.10,2013-09-09 18:59:00,
2013-09-09 12:00:00,87.7,49.6,29.86,East,90,4.0,10.0,27,0.00,,---,0.00,833.00,VWS V14.01,2013-09-09 19:00:00,
2013-09-09 12:14:00,88.6,51.0,29.86,ENE,64,5.0,8.0,27,0.00,,,0.00,847,weatherlink.com 1.10,2013-09-09 19:14:00,
2013-09-09 12:15:00,88.4,50.2,29.86,NE,45,3.0,8.0,27,0.00,,---,0.00,844.00,VWS V14.01,2013-09-09 19:15:00,
2013-09-09 12:29:00,90.1,51.0,29.84,East,79,0.0,9.0,26,0.00,,,0.00,853,weatherlink.com 1.10,2013-09-09 19:29:00,
2013-09-09 12:30:00,89.5,50.1,29.84,East,90,2.0,9.0,26,0.00,,---,0.00,853.00,VWS V14.01,2013-09-09 19:30:00,
2013-09-09 12:44:00,90.1,50.0,29.84,East,86,6.0,11.0,25,0.00,,,0.00,860,weatherlink.com 1.10,2013-09-09 19:44:00,
2013-09-09 12:45:00,90.3,49.7,29.84,East,90,5.0,11.0,25,0.00,,---,0.00,857.00,VWS V14.01,2013-09-09 19:45:00,
2013-09-09 12:59:00,90.3,49.0,29.84,NNE,24,1.0,9.0,24,0.00,,,0.00,860,weatherlink.com 1.10,2013-09-09 19:59:00,
2013-09-09 13:00:00,90.3,48.7,29.83,ENE,68,5.0,11.0,24,0.00,,---,0.00,860.00,VWS V14.01,2013-09-09 20:00:00,
2013-09-09 13:14:00,91.0,48.0,29.83,East,97,5.0,11.0,23,0.00,,,0.00,853,weatherlink.com 1.10,2013-09-09 20:14:00,
2013-09-09 13:15:00,90.9,46.8,29.83,ENE,68,4.0,11.0,22,0.00,,---,0.00,856.00,VWS V14.01,2013-09-09 20:15:00,
2013-09-09 13:29:00,91.8,48.0,29.82,East,85,2.0,9.0,22,0.00,,,0.00,842,weatherlink.com 1.10,2013-09-09 20:29:00,
2013-09-09 13:30:00,91.4,46.0,29.82,East,90,4.0,9.0,21,0.00,,---,0.00,846.00,VWS V14.01,2013-09-09 20:30:00,
2013-09-09 13:45:00,93.2,48.0,29.81,NE,51,4.0,8.0,21,0.00,,,0.00,838,weatherlink.com 1.10,2013-09-09 20:45:00,
2013-09-09 14:00:00,92.7,46.0,29.80,NW,314,0.0,9.0,20,0.00,,,0.00,824,weatherlink.com 1.10,2013-09-09 21:00:00,
2013-09-09 14:15:00,92.5,46.0,29.79,ENE,73,0.0,11.0,20,0.00,,,0.00,805,weatherlink.com 1.10,2013-09-09 21:15:00,
2013-09-09 14:30:00,94.9,47.0,29.78,ENE,72,8.0,10.0,19,0.00,,,0.00,777,weatherlink.com 1.10,2013-09-09 21:30:00,
2013-09-09 14:45:00,93.8,46.0,29.78,NE,37,1.0,9.0,19,0.00,,,0.00,751,weatherlink.com 1.10,2013-09-09 21:45:00,
2013-09-09 14:49:00,93.8,45.3,29.78,North,349,3.0,4.0,19,0.00,,---,0.00,740.00,VWS V14.01,2013-09-09 21:49:00,
2013-09-09 14:54:00,94.0,45.5,29.77,NNW,334,0.0,6.0,19,0.00,,---,0.00,728.00,VWS V14.01,2013-09-09 21:54:00,
2013-09-09 14:59:00,95.1,45.0,29.77,SW,236,3.0,6.0,18,0.00,,---,0.00,719.00,VWS V14.01,2013-09-09 21:59:00,
2013-09-09 15:00:00,95.4,45.2,29.77,SW,236,0.0,6.0,18,0.00,,---,0.00,714.00,VWS V14.01,2013-09-09 22:00:00,
2013-09-09 15:04:00,96.1,45.8,29.77,SE,129,7.0,7.0,18,0.00,,---,0.00,705.00,VWS V14.01,2013-09-09 22:04:00,
2013-09-09 15:09:00,96.6,46.2,29.77,ESE,103,0.0,8.0,18,0.00,,---,0.00,696.00,VWS V14.01,2013-09-09 22:09:00,
2013-09-09 15:14:00,96.6,46.2,29.77,ESE,108,9.0,15.0,18,0.00,,---,0.00,682.00,VWS V14.01,2013-09-09 22:14:00,
2013-09-09 15:15:00,96.1,45.8,29.77,SE,130,7.0,15.0,18,0.00,,---,0.00,677.00,VWS V14.01,2013-09-09 22:15:00,
2013-09-09 15:19:00,95.6,46.8,29.77,ESE,110,4.0,10.0,19,0.00,,---,0.00,668.00,VWS V14.01,2013-09-09 22:19:00,
2013-09-09 15:24:00,95.6,45.4,29.76,South,177,4.0,10.0,18,0.00,,---,0.00,659.00,VWS V14.01,2013-09-09 22:24:00,
2013-09-09 15:29:00,96.3,46.0,29.76,SSE,164,8.0,10.0,18,0.00,,---,0.00,649.00,VWS V14.01,2013-09-09 22:29:00,
2013-09-09 15:30:00,96.3,46.0,29.76,SE,142,7.0,12.0,18,0.00,,---,0.00,643.00,VWS V14.01,2013-09-09 22:30:00,
2013-09-09 15:34:00,96.3,46.0,29.76,South,173,4.0,9.0,18,0.00,,---,0.00,635.00,VWS V14.01,2013-09-09 22:34:00,
2013-09-09 15:40:00,96.6,46.2,29.76,ESE,110,7.0,10.0,18,0.00,,---,0.00,622.00,VWS V14.01,2013-09-09 22:40:00,
2013-09-09 15:45:00,95.9,45.6,29.76,SE,126,0.0,10.0,18,0.00,,---,0.00,608.00,VWS V14.01,2013-09-09 22:45:00,
2013-09-09 15:50:00,96.1,45.8,29.76,East,81,3.0,8.0,18,0.00,,---,0.00,592.00,VWS V14.01,2013-09-09 22:50:00,
2013-09-09 15:55:00,96.3,46.0,29.75,ESE,111,9.0,9.0,18,0.00,,---,0.00,582.00,VWS V14.01,2013-09-09 22:55:00,
2013-09-09 16:00:00,96.1,44.3,29.75,SE,141,1.0,9.0,17,0.00,,---,0.00,573.00,VWS V14.01,2013-09-09 23:00:00,
2013-09-09 16:05:00,96.3,46.0,29.75,ESE,106,8.0,8.0,18,0.00,,---,0.00,552.00,VWS V14.01,2013-09-09 23:05:00,
2013-09-09 16:10:00,95.6,45.4,29.75,East,100,1.0,10.0,18,0.00,,---,0.00,538.00,VWS V14.01,2013-09-09 23:10:00,
2013-09-09 16:15:00,95.9,44.1,29.75,SE,139,5.0,10.0,17,0.00,,---,0.00,526.00,VWS V14.01,2013-09-09 23:15:00,
2013-09-09 16:20:00,95.4,45.2,29.75,ENE,76,5.0,8.0,18,0.00,,---,0.00,512.00,VWS V14.01,2013-09-09 23:20:00,
2013-09-09 16:25:00,95.1,45.0,29.74,ENE,78,4.0,8.0,18,0.00,,---,0.00,489.00,VWS V14.01,2013-09-09 23:25:00,
2013-09-09 16:30:00,95.1,43.5,29.74,SSE,149,4.0,8.0,17,0.00,,---,0.00,469.00,VWS V14.01,2013-09-09 23:30:00,
2013-09-09 16:35:00,95.4,43.7,29.74,ESE,103,5.0,9.0,17,0.00,,---,0.00,464.00,VWS V14.01,2013-09-09 23:35:00,
2013-09-09 16:40:00,95.1,43.5,29.74,East,93,5.0,10.0,17,0.00,,---,0.00,445.00,VWS V14.01,2013-09-09 23:40:00,
2013-09-09 16:45:00,95.1,45.0,29.75,SSE,147,5.0,16.0,18,0.00,,---,0.00,420.00,VWS V14.01,2013-09-09 23:45:00,
2013-09-09 16:50:00,95.1,45.0,29.74,ESE,103,7.0,7.0,18,0.00,,---,0.00,404.00,VWS V14.01,2013-09-09 23:50:00,
2013-09-09 16:55:00,94.9,43.3,29.74,East,91,1.0,11.0,17,0.00,,---,0.00,388.00,VWS V14.01,2013-09-09 23:55:00,
2013-09-09 17:00:00,94.9,43.3,29.74,East,91,2.0,11.0,17,0.00,,---,0.00,374.00,VWS V14.01,2013-09-10 00:00:00,
2013-09-09 17:05:00,94.7,43.2,29.74,East,83,4.0,9.0,17,0.00,,---,0.00,353.00,VWS V14.01,2013-09-10 00:05:00,
2013-09-09 17:10:00,94.7,43.2,29.74,ESE,105,8.0,9.0,17,0.00,,---,0.00,338.00,VWS V14.01,2013-09-10 00:10:00,
2013-09-09 17:15:00,94.5,43.0,29.74,ESE,102,5.0,10.0,17,0.00,,---,0.00,88.00,VWS V14.01,2013-09-10 00:15:00,
2013-09-09 17:20:00,94.5,43.0,29.74,East,85,7.0,7.0,17,0.00,,---,0.00,301.00,VWS V14.01,2013-09-10 00:20:00,
2013-09-09 17:25:00,94.5,44.5,29.74,East,97,5.0,10.0,18,0.00,,---,0.00,285.00,VWS V14.01,2013-09-10 00:25:00,
2013-09-09 17:30:00,94.3,44.3,29.74,East,88,3.0,10.0,18,0.00,,---,0.00,269.00,VWS V14.01,2013-09-10 00:30:00,
2013-09-09 17:35:00,94.3,42.8,29.74,SE,133,6.0,8.0,17,0.00,,---,0.00,209.00,VWS V14.01,2013-09-10 00:35:00,
2013-09-09 17:40:00,94.3,44.3,29.74,SW,227,5.0,8.0,18,0.00,,---,0.00,69.00,VWS V14.01,2013-09-10 00:40:00,
2013-09-09 17:45:00,94.3,42.8,29.74,SSW,198,8.0,19.0,17,0.00,,---,0.00,218.00,VWS V14.01,2013-09-10 00:45:00,
2013-09-09 17:46:00,94.3,42.8,29.74,South,182,19.0,19.0,17,0.00,,---,0.00,220.00,VWS V14.01,2013-09-10 00:46:00,
2013-09-09 17:51:00,94.5,41.4,29.74,SSW,213,4.0,8.0,16,0.00,,---,0.00,206.00,VWS V14.01,2013-09-10 00:51:00,
2013-09-09 17:56:00,94.7,41.6,29.75,West,276,3.0,8.0,16,0.00,,---,0.00,167.00,VWS V14.01,2013-09-10 00:56:00,
2013-09-09 18:00:00,94.7,41.6,29.74,South,179,5.0,8.0,16,0.00,,---,0.00,169.00,VWS V14.01,2013-09-10 01:00:00,
2013-09-09 18:01:00,94.7,41.6,29.74,SSW,193,8.0,8.0,16,0.00,,---,0.00,169.00,VWS V14.01,2013-09-10 01:01:00,
2013-09-09 18:06:00,94.7,41.6,29.74,South,187,6.0,10.0,16,0.00,,---,0.00,167.00,VWS V14.01,2013-09-10 01:06:00,
2013-09-09 18:11:00,94.7,41.6,29.75,SSE,151,2.0,10.0,16,0.00,,---,0.00,149.00,VWS V14.01,2013-09-10 01:11:00,
2013-09-09 18:15:00,94.6,41.5,29.75,South,180,4.0,10.0,16,0.00,,---,0.00,140.00,VWS V14.01,2013-09-10 01:15:00,
2013-09-09 18:20:00,94.5,42.0,29.75,SW,220,3.0,7.0,16,0.00,,,0.00,63,weatherlink.com 1.10,2013-09-10 01:20:00,
2013-09-09 18:30:00,94.2,41.2,29.74,SW,225,5.0,9.0,16,0.00,,---,0.00,54.00,VWS V14.01,2013-09-10 01:30:00,
2013-09-09 18:35:00,93.4,41.0,29.74,WNW,295,2.0,9.0,16,0.00,,,0.00,37,weatherlink.com 1.10,2013-09-10 01:35:00,
2013-09-09 18:45:00,93.1,40.3,29.74,WNW,292,5.0,12.0,16,0.00,,---,0.00,37.00,VWS V14.01,2013-09-10 01:45:00,
2013-09-09 18:50:00,92.3,42.0,29.74,WSW,245,4.0,9.0,17,0.00,,,0.00,23,weatherlink.com 1.10,2013-09-10 01:50:00,
2013-09-09 19:00:00,92.0,41.0,29.74,West,270,4.0,10.0,17,0.00,,---,0.00,17.00,VWS V14.01,2013-09-10 02:00:00,
2013-09-09 19:05:00,91.4,41.0,29.74,WSW,249,3.0,10.0,17,0.00,,,0.00,5,weatherlink.com 1.10,2013-09-10 02:05:00,
2013-09-09 19:15:00,91.1,40.3,29.74,WSW,248,5.0,9.0,17,0.00,,---,0.00,2.00,VWS V14.01,2013-09-10 02:15:00,
2013-09-09 19:20:00,90.3,40.0,29.73,WSW,254,4.0,9.0,17,0.00,,,0.00,0,weatherlink.com 1.10,2013-09-10 02:20:00,
2013-09-09 19:30:00,90.2,41.0,29.74,West,270,5.0,11.0,18,0.00,,---,0.00,0.00,VWS V14.01,2013-09-10 02:30:00,
2013-09-09 19:35:00,89.9,42.0,29.74,WSW,256,5.0,10.0,19,0.00,,,0.00,0,weatherlink.com 1.10,2013-09-10 02:35:00,
2013-09-09 19:45:00,89.6,43.3,29.74,WSW,248,4.0,8.0,20,0.00,,---,0.00,0.00,VWS V14.01,2013-09-10 02:45:00,
2013-09-09 19:50:00,88.8,43.0,29.74,WSW,249,3.0,7.0,20,0.00,,,0.00,0,weatherlink.com 1.10,2013-09-10 02:50:00,
2013-09-09 20:00:00,88.6,42.4,29.75,WSW,248,5.0,10.0,20,0.00,,---,0.00,0.00,VWS V14.01,2013-09-10 03:00:00,
2013-09-09 20:05:00,88.0,42.0,29.75,WSW,255,4.0,10.0,20,0.00,,,0.00,0,weatherlink.com 1.10,2013-09-10 03:05:00,
2013-09-09 20:15:00,87.8,41.8,29.75,WSW,248,6.0,11.0,20,0.00,,---,0.00,0.00,VWS V14.01,2013-09-10 03:15:00,
2013-09-09 20:20:00,87.2,42.0,29.75,SW,230,6.0,10.0,20,0.00,,,0.00,0,weatherlink.com 1.10,2013-09-10 03:20:00,
2013-09-09 20:30:00,86.9,39.7,29.75,WSW,248,6.0,12.0,19,0.00,,---,0.00,0.00,VWS V14.01,2013-09-10 03:30:00,
2013-09-09 20:35:00,86.3,39.0,29.75,West,270,5.0,12.0,19,0.00,,,0.00,0,weatherlink.com 1.10,2013-09-10 03:35:00,
2013-09-09 20:45:00,86.2,39.2,29.75,WSW,248,7.0,12.0,19,0.00,,---,0.00,0.00,VWS V14.01,2013-09-10 03:45:00,
2013-09-09 20:50:00,85.9,39.0,29.75,WSW,237,4.0,12.0,19,0.00,,,0.00,0,weatherlink.com 1.10,2013-09-10 03:50:00,
2013-09-09 21:00:00,85.9,37.5,29.75,WSW,248,7.0,13.0,18,0.00,,---,0.00,0.00,VWS V14.01,2013-09-10 04:00:00,
2013-09-09 21:05:00,85.9,38.0,29.75,WSW,256,5.0,14.0,18,0.00,,,0.00,0,weatherlink.com 1.10,2013-09-10 04:05:00,
2013-09-09 21:15:00,85.7,38.7,29.75,WSW,248,8.0,14.0,19,0.00,,---,0.00,0.00,VWS V14.01,2013-09-10 04:15:00,
2013-09-09 21:20:00,85.3,39.0,29.75,SW,236,10.0,15.0,19,0.00,,,0.00,0,weatherlink.com 1.10,2013-09-10 04:20:00,
2013-09-09 21:30:00,85.3,38.4,29.75,WSW,248,7.0,15.0,19,0.00,,---,0.00,0.00,VWS V14.01,2013-09-10 04:30:00,
2013-09-09 21:35:00,84.9,38.0,29.75,WSW,253,5.0,12.0,19,0.00,,,0.00,0,weatherlink.com 1.10,2013-09-10 04:35:00,
2013-09-09 21:45:00,84.8,38.0,29.75,WSW,248,7.0,13.0,19,0.00,,---,0.00,0.00,VWS V14.01,2013-09-10 04:45:00,
2013-09-09 21:50:00,84.3,39.0,29.75,WSW,241,7.0,12.0,20,0.00,,,0.00,0,weatherlink.com 1.10,2013-09-10 04:50:00,
2013-09-09 22:00:00,84.3,38.9,29.75,WSW,248,7.0,14.0,20,0.00,,---,0.00,0.00,VWS V14.01,2013-09-10 05:00:00,
2013-09-09 22:05:00,84.1,39.0,29.75,SW,236,6.0,13.0,20,0.00,,,0.00,0,weatherlink.com 1.10,2013-09-10 05:05:00,
2013-09-09 22:15:00,83.9,38.6,29.75,WSW,248,5.0,10.0,20,0.00,,---,0.00,0.00,VWS V14.01,2013-09-10 05:15:00,
2013-09-09 22:20:00,83.6,40.0,29.75,WSW,244,5.0,12.0,21,0.00,,,0.00,0,weatherlink.com 1.10,2013-09-10 05:20:00,
2013-09-09 22:30:00,83.6,39.6,29.76,WSW,248,6.0,12.0,21,0.00,,---,0.00,0.00,VWS V14.01,2013-09-10 05:30:00,
2013-09-09 22:35:00,83.4,40.0,29.76,SW,222,6.0,10.0,21,0.00,,,0.00,0,weatherlink.com 1.10,2013-09-10 05:35:00,
2013-09-09 22:45:00,83.1,39.2,29.75,SW,225,5.0,9.0,21,0.00,,---,0.00,0.00,VWS V14.01,2013-09-10 05:45:00,
2013-09-09 22:50:00,82.6,39.0,29.75,SW,221,5.0,9.0,21,0.00,,,0.00,0,weatherlink.com 1.10,2013-09-10 05:50:00,
2013-09-09 23:00:00,82.5,39.9,29.75,SW,225,5.0,10.0,22,0.00,,---,0.00,0.00,VWS V14.01,2013-09-10 06:00:00,
2013-09-09 23:05:00,82.2,40.0,29.76,SW,232,4.0,8.0,22,0.00,,,0.00,0,weatherlink.com 1.10,2013-09-10 06:05:00,
2013-09-09 23:15:00,82.2,38.4,29.75,SW,225,5.0,10.0,21,0.00,,---,0.00,0.00,VWS V14.01,2013-09-10 06:15:00,
2013-09-09 23:20:00,82.4,39.0,29.76,SW,216,5.0,10.0,21,0.00,,,0.00,0,weatherlink.com 1.10,2013-09-10 06:20:00,
2013-09-09 23:30:00,82.5,38.7,29.76,SSW,202,6.0,12.0,21,0.00,,---,0.00,0.00,VWS V14.01,2013-09-10 06:30:00,
2013-09-09 23:35:00,82.6,39.0,29.76,SW,225,4.0,11.0,21,0.00,,,0.00,0,weatherlink.com 1.10,2013-09-10 06:35:00,
2013-09-09 23:45:00,82.6,38.8,29.76,SW,225,6.0,11.0,21,0.00,,---,0.00,0.00,VWS V14.01,2013-09-10 06:45:00,
2013-09-09 23:50:00,82.4,39.0,29.76,SW,214,4.0,11.0,21,0.00,,,0.00,0,weatherlink.com 1.10,2013-09-10 06:50:00,